createdAt,value
2023-03-26T00:00:29.488Z,81.36
2023-03-26T00:06:12.918Z,81.34
2023-03-26T00:11:20.059Z,81.33
2023-03-26T00:16:26.374Z,81.23
2023-03-26T00:21:31.573Z,81.32
2023-03-26T00:26:37.831Z,81.25
2023-03-26T00:31:41.260Z,81.31
2023-03-26T00:36:47.277Z,81.32
2023-03-26T00:41:54.661Z,81.19
2023-03-26T00:46:57.931Z,81.10
2023-03-26T00:52:03.350Z,80.98
2023-03-26T00:57:07.123Z,81.02
2023-03-26T01:02:18.910Z,81.15
2023-03-26T01:07:29.197Z,81.32
2023-03-26T01:12:32.305Z,81.42
2023-03-26T01:17:38.046Z,81.50
2023-03-26T01:22:49.503Z,81.64
2023-03-26T01:27:56.407Z,81.70
2023-03-26T01:33:05.793Z,81.72
2023-03-26T01:38:23.455Z,81.88
2023-03-26T01:43:34.393Z,82.09
2023-03-26T01:48:47.155Z,82.00
2023-03-26T01:53:50.748Z,81.95
2023-03-26T01:59:29.682Z,81.92
2023-03-26T02:04:53.620Z,81.90
2023-03-26T02:10:06.768Z,81.94
2023-03-26T02:15:12.269Z,82.17
2023-03-26T02:20:19.107Z,82.22
2023-03-26T02:25:23.776Z,82.25
2023-03-26T02:30:26.899Z,82.23
2023-03-26T02:35:30.099Z,82.21
2023-03-26T02:40:33.321Z,82.18
2023-03-26T02:45:36.865Z,82.21
2023-03-26T02:50:40.242Z,82.32
2023-03-26T02:55:43.899Z,82.81
2023-03-26T03:00:47.831Z,83.42
2023-03-26T03:05:53.665Z,84.09
2023-03-26T03:11:08.396Z,84.42
2023-03-26T03:16:12.020Z,84.44
2023-03-26T03:21:15.182Z,84.41
2023-03-26T03:26:22.365Z,84.70
2023-03-26T03:31:27.397Z,84.82
2023-03-26T03:36:30.736Z,85.00
2023-03-26T03:41:33.938Z,85.13
2023-03-26T03:46:36.986Z,85.04
2023-03-26T03:51:40.160Z,84.88
2023-03-26T03:56:45.949Z,84.92
2023-03-26T04:01:51.048Z,85.08
2023-03-26T04:06:54.108Z,85.10
2023-03-26T04:11:57.296Z,85.24
2023-03-26T04:17:00.822Z,85.50
2023-03-26T04:22:03.918Z,85.50
2023-03-26T04:27:12.884Z,85.47
2023-03-26T04:32:30.361Z,85.54
2023-03-26T04:37:41.173Z,85.50
2023-03-26T04:42:46.958Z,85.63
2023-03-26T04:47:50.949Z,85.60
2023-03-26T04:52:59.859Z,85.49
2023-03-26T04:58:05.637Z,85.35
2023-03-26T05:03:11.864Z,85.36
2023-03-26T05:08:14.880Z,85.39
2023-03-26T05:13:18.088Z,85.54
2023-03-26T05:18:21.402Z,85.55
2023-03-26T05:23:24.534Z,85.43
2023-03-26T05:28:28.429Z,85.31
2023-03-26T05:33:31.624Z,85.18
2023-03-26T05:38:36.088Z,85.20
2023-03-26T05:43:39.181Z,85.14
2023-03-26T05:48:42.340Z,85.02
2023-03-26T05:53:45.717Z,84.96
2023-03-26T05:58:50.087Z,84.71
2023-03-26T06:03:54.290Z,84.32
2023-03-26T06:09:01.928Z,84.37
2023-03-26T06:14:07.344Z,84.29
2023-03-26T06:19:10.735Z,84.19
2023-03-26T06:24:14.170Z,83.93
2023-03-26T06:29:17.385Z,83.65
2023-03-26T06:34:20.811Z,83.41
2023-03-26T06:39:24.012Z,82.74
2023-03-26T06:44:27.214Z,82.77
2023-03-26T06:49:30.629Z,82.70
2023-03-26T06:54:34.050Z,82.47
2023-03-26T06:59:37.262Z,82.41
2023-03-26T07:04:40.758Z,82.37
2023-03-26T07:09:43.997Z,81.99
2023-03-26T07:14:47.177Z,81.53
2023-03-26T07:19:52.885Z,81.58
2023-03-26T07:24:57.061Z,81.45
2023-03-26T07:30:09.596Z,81.10
2023-03-26T07:35:24.859Z,81.12
2023-03-26T07:41:01.648Z,80.94
2023-03-26T07:46:09.578Z,80.28
2023-03-26T07:51:14.289Z,79.79
2023-03-26T07:56:23.704Z,79.17
2023-03-26T08:01:46.991Z,78.82
2023-03-26T08:07:06.067Z,78.15
2023-03-26T08:12:44.935Z,77.09
2023-03-26T08:17:57.378Z,76.93
2023-03-26T08:23:14.162Z,77.29
2023-03-26T08:28:46.381Z,76.89
2023-03-26T08:33:50.306Z,76.35
2023-03-26T08:38:54.273Z,75.38
2023-03-26T08:44:13.996Z,75.72
2023-03-26T08:49:32.485Z,76.03
2023-03-26T08:55:13.469Z,76.41
2023-03-26T09:00:41.559Z,76.50
2023-03-26T09:05:53.472Z,75.93
2023-03-26T09:11:11.633Z,74.93
2023-03-26T09:17:05.627Z,73.62
2023-03-26T09:22:50.105Z,74.39
2023-03-26T09:28:34.788Z,77.29
2023-03-26T09:34:15.888Z,79.99
2023-03-26T09:39:33.326Z,80.04
2023-03-26T09:45:10.979Z,80.14
2023-03-26T09:50:52.894Z,80.75
2023-03-26T09:56:18.540Z,80.65
2023-03-26T10:01:40.884Z,81.46
2023-03-26T10:07:05.456Z,80.47
2023-03-26T10:12:22.704Z,78.79
2023-03-26T10:18:27.783Z,77.63
2023-03-26T10:24:01.791Z,76.91
2023-03-26T10:29:53.263Z,76.81
2023-03-26T10:35:37.630Z,76.24
2023-03-26T10:41:09.379Z,74.49
2023-03-26T10:47:09.435Z,73.09
2023-03-26T10:52:18.433Z,73.90
2023-03-26T10:57:51.471Z,75.28
2023-03-26T11:03:41.893Z,74.63
2023-03-26T11:08:56.465Z,73.01
2023-03-26T11:14:27.866Z,73.13
2023-03-26T11:19:51.960Z,72.90
2023-03-26T11:25:30.365Z,71.88
2023-03-26T11:30:42.313Z,70.25
2023-03-26T11:35:53.221Z,69.19
2023-03-26T11:40:59.234Z,66.50
2023-03-26T11:46:10.093Z,66.15
2023-03-26T11:51:29.738Z,63.68
2023-03-26T11:57:04.558Z,62.77
2023-03-26T12:02:14.706Z,64.22
2023-03-26T12:07:34.232Z,63.52
2023-03-26T12:12:41.946Z,63.57
2023-03-26T12:17:48.882Z,65.06
2023-03-26T12:23:01.028Z,66.46
2023-03-26T12:28:14.004Z,73.08
2023-03-26T12:33:27.784Z,75.88
2023-03-26T12:38:34.521Z,77.95
2023-03-26T12:44:54.131Z,79.40
2023-03-26T12:49:09.017Z,80.31
2023-03-26T12:54:34.656Z,78.84
2023-03-26T12:59:58.174Z,78.24
2023-03-26T13:05:32.595Z,78.35
2023-03-26T13:11:00.676Z,75.56
2023-03-26T13:16:32.726Z,75.29
2023-03-26T13:22:17.250Z,74.24
2023-03-26T13:28:06.638Z,72.18
2023-03-26T13:33:41.047Z,72.11
2023-03-26T13:39:16.440Z,71.44
2023-03-26T13:45:07.268Z,73.13
2023-03-26T13:50:54.483Z,75.23
2023-03-26T13:56:00.795Z,76.87
2023-03-26T14:01:44.013Z,77.58
2023-03-26T14:07:10.425Z,77.17
2023-03-26T14:12:59.978Z,76.93
2023-03-26T14:18:31.660Z,76.50
2023-03-26T14:24:08.690Z,76.37
2023-03-26T14:29:56.625Z,75.07
2023-03-26T14:35:06.242Z,75.56
2023-03-26T14:40:37.026Z,74.00
2023-03-26T14:46:08.512Z,74.02
2023-03-26T14:51:46.213Z,70.99
2023-03-26T14:57:12.228Z,72.00
2023-03-26T15:02:51.040Z,73.43
2023-03-26T15:08:11.219Z,73.30
2023-03-26T15:13:37.791Z,73.90
2023-03-26T15:19:05.863Z,73.00
2023-03-26T15:24:30.265Z,73.07
2023-03-26T15:29:54.878Z,72.88
2023-03-26T15:35:10.272Z,72.67
2023-03-26T15:40:38.567Z,73.37
2023-03-26T15:46:26.531Z,73.48
2023-03-26T15:51:59.218Z,75.47
2023-03-26T15:57:21.515Z,76.39
2023-03-26T16:02:58.358Z,76.87
2023-03-26T16:08:19.208Z,76.92
2023-03-26T16:13:37.749Z,76.50
2023-03-26T16:18:43.477Z,76.64
2023-03-26T16:23:49.923Z,76.61
2023-03-26T16:29:06.543Z,76.89
2023-03-26T16:34:12.517Z,77.61
2023-03-26T16:39:23.135Z,78.15
2023-03-26T16:44:45.573Z,78.64
2023-03-26T16:50:12.332Z,78.67
2023-03-26T16:55:31.298Z,78.50
2023-03-26T17:00:41.429Z,78.57
2023-03-26T17:05:56.930Z,78.59
2023-03-26T17:11:40.216Z,78.63
2023-03-26T17:17:01.450Z,78.99
2023-03-26T17:22:21.660Z,79.21
2023-03-26T17:27:37.969Z,79.15
2023-03-26T17:33:06.277Z,79.38
2023-03-26T17:38:18.893Z,79.12
2023-03-26T17:43:52.460Z,78.50
2023-03-26T17:49:12.731Z,79.14
2023-03-26T17:54:33.744Z,79.93
2023-03-26T17:59:39.326Z,80.28
2023-03-26T18:04:48.080Z,80.56
2023-03-26T18:10:33.436Z,80.64
2023-03-26T18:15:55.193Z,80.73
2023-03-26T18:21:03.636Z,80.99
2023-03-26T18:26:34.281Z,81.11
2023-03-26T18:31:42.857Z,81.33
2023-03-26T18:36:54.403Z,81.29
2023-03-26T18:41:58.643Z,81.43
2023-03-26T18:47:07.238Z,81.44
2023-03-26T18:52:20.150Z,81.29
2023-03-26T18:57:28.361Z,81.37
2023-03-26T19:02:32.082Z,81.57
2023-03-26T19:07:37.539Z,81.57
2023-03-26T19:12:41.661Z,82.30
2023-03-26T19:17:49.441Z,83.36
2023-03-26T19:22:55.452Z,82.54
2023-03-26T19:27:59.371Z,82.61
2023-03-26T19:33:22.492Z,82.39
2023-03-26T19:38:29.141Z,81.88
2023-03-26T19:43:32.348Z,82.03
2023-03-26T19:48:45.614Z,81.12
2023-03-26T19:53:58.356Z,80.97
2023-03-26T19:59:02.585Z,80.61
2023-03-26T20:04:11.007Z,80.00
2023-03-26T20:09:14.567Z,79.73
2023-03-26T20:14:26.415Z,79.71
2023-03-26T20:19:30.895Z,79.68
2023-03-26T20:24:34.584Z,79.89
2023-03-26T20:29:37.681Z,79.73
2023-03-26T20:34:41.706Z,79.56
2023-03-26T20:39:45.974Z,79.54
2023-03-26T20:44:49.048Z,79.43
2023-03-26T20:49:52.765Z,78.39
2023-03-26T20:54:56.384Z,78.15
2023-03-26T21:00:00.836Z,77.93
2023-03-26T21:05:05.741Z,77.88
2023-03-26T21:10:14.517Z,78.09
2023-03-26T21:15:23.472Z,78.29
2023-03-26T21:20:28.662Z,78.60
2023-03-26T21:25:42.257Z,78.77
2023-03-26T21:30:47.210Z,78.53
2023-03-26T21:35:51.953Z,78.47
2023-03-26T21:40:58.863Z,78.64
2023-03-26T21:46:03.512Z,78.77
2023-03-26T21:51:07.591Z,78.92
2023-03-26T21:56:22.927Z,78.86
2023-03-26T22:01:35.193Z,78.88
2023-03-26T22:06:54.631Z,78.85
2023-03-26T22:11:57.783Z,79.06
2023-03-26T22:17:00.982Z,79.47
2023-03-26T22:22:04.469Z,79.74
2023-03-26T22:27:14.193Z,79.68
2023-03-26T22:32:19.478Z,79.51
2023-03-26T22:37:24.028Z,79.51
2023-03-26T22:42:27.743Z,79.67
2023-03-26T22:47:33.909Z,80.03
2023-03-26T22:52:39.683Z,80.64
2023-03-26T22:57:43.037Z,80.80
2023-03-26T23:02:47.470Z,80.76
2023-03-26T23:07:52.485Z,80.53
2023-03-26T23:12:55.903Z,80.22
2023-03-26T23:17:59.593Z,80.27
2023-03-26T23:23:02.833Z,80.48
2023-03-26T23:28:06.187Z,80.63
2023-03-26T23:33:09.313Z,80.82
2023-03-26T23:38:13.208Z,80.88
2023-03-26T23:43:16.589Z,81.09
2023-03-26T23:48:23.390Z,81.22
2023-03-26T23:53:29.725Z,81.32
2023-03-26T23:58:32.870Z,81.24
